Immokalee, Florida
Current Conditions -  °F | °C
As of 5:35 PM on Friday 24 Oct 2014 (Local Time) from KIMM Reporting Station
Few Clouds Few Clouds  
Wind Chill: 82°   Ceiling: Unl
Heat Index: 84°   Visibility: 8mi
Dew Point: 64°   Wind: 13mph
Humidity: 54%   Direction: 50°NE
Pressure: 29.87"   Gusts: NA
Location:  26.42°N, 81.42°W
Report Text: KIMM 242135Z AUTO 05011KT 8SM FEW042 28/18 A2987 RMK A01 P000
Loading
Personal Weather Stations






























Interactive Weather Map
Tropical Storm Tracking
New forecast layout! Learn more

10-Day Weather Forecast

Advertisements
Track Severe Weather on mobile